• Join FlightAware (Why Join?)
  • Login
  • US Flag 
12:06PM EST


 

Airport Tracker/Info


-or-


 

Live Flight TrackerFlight Track Log ✈ AWE1556 ✈ 04-Jul-2013 ✈ KPHX - KCLT

Flight Track Log - Related Links

Times and Time Zones

All times are in EDT time to prevent confusion due to time zone crossing. See the AWE1556 flight status page for this flight to view local times or setup timezone preferences in your user account.

Time Position Orientation Groundspeed Altitude Reporting Facility
EDT Latitude Longitude Course Direction KTS MPH feet Rate Location/Type
02:39AM 33.4410 -112.0350 270° West 175 201 2,200  Level FlightAware
02:40AM 33.4420 -112.0610 273° West 178 205 3,000 1,320 Climbing FlightAware
02:40AM 33.4430 -112.0740 275° West 186 214 3,100 600 Climbing FlightAware
02:41AM 33.4450 -112.1040 275° West 205 236 3,400 660 Climbing FlightAware
02:41AM 33.4470 -112.1330 275° West 225 259 3,700 600 Climbing FlightAware
02:42AM 33.4540 -112.1760 281° West 259 298 4,000 660 Climbing FlightAware
02:42AM 33.4630 -112.1880 312° West 272 313 4,200 1,020 Climbing FlightAware
02:42AM 33.4820 -112.1990 334° Northwest 284 327 4,500 960 Climbing FlightAware
02:42AM 33.5030 -112.1980 North 289 333 4,900 1,200 Climbing FlightAware
02:43AM 33.5150 -112.1910 26° Northeast 289 333 5,200 2,040 Climbing FlightAware
02:43AM 33.5310 -112.1710 46° Northeast 285 328 5,800 1,920 Climbing FlightAware
02:43AM 33.5350 -112.1590 68° East 283 326 6,100 1,560 Climbing FlightAware
02:44AM 33.5490 -112.1140 70° East 282 325 6,900 1,620 Climbing FlightAware
02:44AM 33.5610 -112.0750 70° East 288 331 7,600 1,620 Climbing FlightAware
02:44AM 33.5720 -112.0410 69° East 288 331 8,200 1,440 Climbing FlightAware
02:45AM 33.5780 -112.0220 69° East 289 333 8,500 1,500 Climbing FlightAware
02:46AM 33.6240 -111.8720 70° East 315 362 10,700 1,260 Climbing FlightAware
02:47AM 33.6460 -111.8010 70° East 339 390 11,200 720 Climbing FlightAware
02:47AM 33.6710 -111.7190 70° East 362 417 11,800 720 Climbing FlightAware
02:48AM 33.6890 -111.6330 76° East 383 441 12,300 1,080 Climbing FlightAware
02:49AM 33.7060 -111.5490 76° East 386 444 13,300 1,320 Climbing FlightAware
02:49AM 33.7220 -111.4710 76° East 395 455 14,000 1,260 Climbing FlightAware
02:50AM 33.7380 -111.3880 77° East 397 457 14,900 1,320 Climbing FlightAware
02:51AM 33.7570 -111.2910 77° East 402 463 15,900 1,320 Climbing FlightAware
02:51AM 33.7730 -111.2070 77° East 405 466 16,800 1,140 Climbing FlightAware
02:52AM 33.7920 -111.1140 76° East 410 472 17,500 840 Climbing FlightAware
02:53AM 33.8030 -111.0560 77° East 414 476 18,000 900 Climbing FlightAware
02:54AM 33.8240 -110.9440 77° East 423 487 18,800 1,260 Climbing FlightAware
02:54AM 33.8400 -110.8650 76° East 421 484 19,700 1,200 Climbing FlightAware
02:55AM 33.8560 -110.7820 77° East 422 486 20,400 1,560 Climbing FlightAware
02:56AM 33.8760 -110.6760 77° East 407 468 21,900 1,920 Climbing FlightAware
02:56AM 33.8890 -110.6050 78° East 395 455 22,800 1,140 Climbing FlightAware
02:57AM 33.9050 -110.5210 77° East 398 458 23,400 420 Climbing FlightAware
02:57AM 33.9190 -110.4490 77° East 398 458 23,400 420 Level FlightAware
02:58AM 33.9410 -110.3290 78° East 421 484 24,000 600 Climbing FlightAware
02:59AM 33.9540 -110.2180 82° East 431 496 24,300 240 Climbing FlightAware
03:00AM 33.9720 -110.0570 82° East 439 505 24,500 60 Climbing FlightAware
03:01AM 33.9810 -109.9790 82° East 439 505 24,500 420 Level FlightAware
03:01AM 33.9780 -109.8530 92° East 459 528 25,100 780 Climbing FlightAware
03:02AM 33.9940 -109.7190 82° East 463 533 25,700 420 Climbing FlightAware
03:03AM 34.0140 -109.6170 77° East 466 536 25,900 120 Climbing FlightAware
03:04AM 34.0280 -109.5400 78° East 466 536 25,900  Level FlightAware
03:05AM 34.0490 -109.4340 77° East 466 536 25,900  Level FlightAware
03:05AM 34.0650 -109.3500 77° East 466 536 25,900  Level FlightAware
03:06AM 34.0850 -109.2440 77° East 466 536 25,900  Level FlightAware
03:07AM 34.1000 -109.1670 77° East 466 536 25,900 2,220 Level FlightAware
03:08AM 34.2417 -108.8908 77° East 448 516 30,400 660 Climbing Albuquerque Center
03:14AM 34.4210 -107.9620 77° East 463 533 31,000 60 Climbing FlightAware
03:15AM 34.4350 -107.8800 78° East 463 533 31,000  Level FlightAware
03:15AM 34.4540 -107.7740 78° East 463 533 31,000  Level FlightAware
03:16AM 34.4680 -107.6940 78° East 463 533 31,000  Level FlightAware
03:17AM 34.4940 -107.5120 80° East 461 531 31,000  Level FlightAware
03:18AM 34.5060 -107.4320 80° East 462 532 31,000  Level FlightAware
03:18AM 34.5270 -107.3030 79° East 460 529 31,000  Level FlightAware
03:19AM 34.5380 -107.2330 79° East 460 529 31,000  Level FlightAware
03:20AM 34.5600 -107.0950 79° East 456 525 31,000  Level FlightAware
03:20AM 34.5760 -106.9940 79° East 453 521 31,000 60 Level FlightAware
03:21AM 34.5920 -106.8850 80° East 453 521 31,100 240 Climbing FlightAware
03:22AM 34.6080 -106.7880 79° East 457 526 31,400 660 Climbing FlightAware
03:22AM 34.6230 -106.6880 80° East 457 526 32,000 840 Climbing FlightAware
03:23AM 34.6370 -106.5970 79° East 456 525 32,500 660 Climbing FlightAware
03:24AM 34.6550 -106.4770 80° East 456 525 33,000 300 Climbing FlightAware
03:25AM 34.6710 -106.3710 80° East 450 518 33,000  Level FlightAware
03:25AM 34.6860 -106.2680 80° East 453 521 33,000  Level FlightAware
03:26AM 34.7030 -106.1550 80° East 455 524 33,000  Level FlightAware
03:27AM 34.7180 -106.0540 80° East 457 526 33,000  Level FlightAware
03:27AM 34.7330 -105.9550 80° East 457 526 33,000  Level FlightAware
03:28AM 34.7490 -105.8440 80° East 458 527 33,000  Level FlightAware
03:29AM 34.7640 -105.7370 80° East 458 527 33,000 60 Level FlightAware
03:29AM 34.7800 -105.6290 80° East 458 527 33,100 60 Climbing FlightAware
03:30AM 34.7930 -105.5360 80° East 457 526 33,100  Level FlightAware
03:31AM 34.8040 -105.4580 80° East 457 526 33,100  Level FlightAware
03:31AM 34.8160 -105.3780 80° East 457 526 33,100  Level FlightAware
03:32AM 34.8310 -105.2770 80° East 457 526 33,100  Level FlightAware
03:33AM 34.8420 -105.2020 80° East 457 526 33,100  Level FlightAware
03:33AM 34.8530 -105.1240 80° East 457 526 33,100  Level FlightAware
03:34AM 34.8680 -105.0180 80° East 457 526 33,100  Level FlightAware
03:35AM 34.8790 -104.9410 80° East 457 526 33,100  Level FlightAware
03:36AM 34.8950 -104.8350 80° East 457 526 33,100  Level FlightAware
03:36AM 34.9060 -104.7570 80° East 457 526 33,100  Level FlightAware
03:37AM 34.9250 -104.6280 80° East 457 526 33,100  Level FlightAware
03:38AM 34.9360 -104.5500 80° East 457 526 33,100  Level FlightAware
03:38AM 34.9470 -104.4720 80° East 457 526 33,100  Level FlightAware
03:39AM 34.9610 -104.3730 80° East 457 526 33,100  Level FlightAware
03:40AM 34.9944 -104.0539 80° East 443 510 33,100  Level Albuquerque Center
03:41AM 35.0142 -103.9072 81° East 440 506 33,100 -60 Level Albuquerque Center
03:42AM 35.0336 -103.7619 81° East 436 502 33,000 -60 Descending Albuquerque Center
03:43AM 35.0522 -103.6156 81° East 436 502 33,000  Level Albuquerque Center
03:44AM 35.0708 -103.4714 81° East 431 496 33,000  Level Albuquerque Center
03:45AM 35.0878 -103.3244 82° East 433 498 33,000  Level Albuquerque Center
03:46AM 35.1067 -103.1775 81° East 435 501 33,000  Level Albuquerque Center
03:47AM 35.1250 -103.0303 81° East 436 502 33,100  Climbing Albuquerque Center
03:48AM 35.1422 -102.8858 82° East 435 501 33,100 -60 Level Albuquerque Center
03:49AM 35.1589 -102.7406 82° East 433 498 33,000 -60 Descending Albuquerque Center
03:50AM 35.1764 -102.5969 81° East 430 495 33,000  Level Albuquerque Center
03:51AM 35.1928 -102.4544 82° East 426 490 33,000  Level Albuquerque Center
03:52AM 35.2094 -102.3117 82° East 426 490 33,000  Level Albuquerque Center
03:53AM 35.2253 -102.1686 82° East 425 489 33,000  Level Albuquerque Center
03:54AM 35.2422 -102.0258 82° East 425 489 33,000  Level Albuquerque Center
03:55AM 35.2572 -101.8944 82° East 428 493 33,000  Level Albuquerque Center
03:56AM 35.2750 -101.7494 81° East 428 493 33,000  Level Albuquerque Center
03:57AM 35.2914 -101.5975 82° East 427 491 33,000  Level Albuquerque Center
03:58AM 35.3044 -101.4539 84° East 426 490 33,000  Level Albuquerque Center
03:59AM 35.3206 -101.3089 82° East 427 491 33,000  Level Albuquerque Center
04:00AM 35.3344 -101.1772 83° East 430 495 33,000  Level Albuquerque Center
04:01AM 35.3503 -101.0306 82° East 434 499 33,000  Level Albuquerque Center
04:02AM 35.3658 -100.8808 83° East 441 507 33,100  Climbing Albuquerque Center
04:03AM 35.3808 -100.7303 83° East 445 512 33,100 -60 Level Albuquerque Center
04:04AM 35.3981 -100.5633 83° East 448 516 33,000 -60 Descending Albuquerque Center
04:05AM 35.4142 -100.4111 83° East 450 518 33,000  Level Albuquerque Center
04:06AM 35.4308 -100.2578 82° East 452 520 33,000  Level Albuquerque Center
04:07AM 35.4428 -100.1017 85° East 456 525 33,100  Climbing Albuquerque Center
04:08AM 35.4581 -99.9472 83° East 457 526 33,000 -60 Descending Albuquerque Center
04:09AM 35.4725 -99.7961 83° East 451 519 33,000  Level Albuquerque Center
04:10AM 35.4853 -99.6464 84° East 445 512 33,000  Level Albuquerque Center
04:11AM 35.4994 -99.4892 84° East 443 510 33,000  Level Fort Worth Center
04:12AM 35.5144 -99.3414 83° East 443 510 33,000  Level Fort Worth Center
04:13AM 35.5250 -99.1886 85° East 443 510 33,000  Level Fort Worth Center
04:19AM 35.6030 -98.2920 85° East 442 509 33,000  Level FlightAware
04:20AM 35.6120 -98.1760 85° East 444 511 33,000  Level FlightAware
04:20AM 35.6190 -98.0970 84° East 447 514 33,000 60 Level FlightAware
04:21AM 35.6280 -97.9850 84° East 448 516 33,100 60 Climbing FlightAware
04:22AM 35.6370 -97.8640 85° East 447 514 33,100  Level FlightAware
04:23AM 35.6460 -97.7430 85° East 441 507 33,100 -120 Level FlightAware
04:23AM 35.6550 -97.6310 84° East 437 503 33,000 -120 Descending FlightAware
04:24AM 35.6620 -97.5350 85° East 436 502 33,000  Level FlightAware
04:25AM 35.6700 -97.4340 84° East 435 501 33,000  Level FlightAware
04:26AM 35.6810 -97.2930 84° East 435 501 33,000  Level FlightAware
04:26AM 35.6870 -97.2170 84° East 435 501 33,000  Level FlightAware
04:27AM 35.6960 -97.0620 86° East 435 501 33,000  Level FlightAware
04:28AM 35.7040 -96.9530 85° East 435 501 33,000  Level FlightAware
04:29AM 35.7120 -96.8380 85° East 437 503 33,000  Level FlightAware
04:29AM 35.7180 -96.7440 85° East 438 504 33,000  Level FlightAware
04:30AM 35.7260 -96.6300 85° East 439 505 33,000  Level FlightAware
04:31AM 35.7330 -96.5300 85° East 440 506 33,000 60 Level FlightAware
04:32AM 35.7390 -96.4290 86° East 440 506 33,100  Climbing FlightAware
04:32AM 35.7450 -96.3450 85° East 440 506 33,000 -120 Descending FlightAware
04:33AM 35.7510 -96.2450 86° East 439 505 33,000  Level FlightAware
04:33AM 35.7580 -96.1420 85° East 438 504 33,000  Level FlightAware
04:34AM 35.7650 -96.0350 85° East 437 503 33,000  Level FlightAware
04:35AM 35.7710 -95.9320 86° East 436 502 33,000  Level FlightAware
04:36AM 35.7770 -95.8370 86° East 436 502 33,000  Level FlightAware
04:36AM 35.7820 -95.7470 86° East 438 504 33,000  Level FlightAware
04:37AM 35.7890 -95.6390 85° East 439 505 33,000  Level FlightAware
04:38AM 35.7950 -95.5370 86° East 440 506 33,000  Level FlightAware
04:38AM 35.8020 -95.4080 86° East 440 506 33,000  Level FlightAware
04:39AM 35.8080 -95.3090 86° East 440 506 33,000  Level FlightAware
04:40AM 35.8130 -95.2050 87° East 439 505 33,000  Level FlightAware
04:40AM 35.8190 -95.0970 86° East 438 504 33,000  Level FlightAware
04:41AM 35.8240 -95.0090 86° East 437 503 33,000  Level FlightAware
04:42AM 35.8300 -94.8890 86° East 439 505 33,000  Level FlightAware
04:42AM 35.8350 -94.7990 86° East 441 507 33,000  Level FlightAware
04:43AM 35.8400 -94.6980 86° East 445 512 33,000  Level FlightAware
04:44AM 35.8460 -94.5960 86° East 449 517 33,000  Level FlightAware
04:45AM 35.8540 -94.4310 87° East 455 524 33,000  Level FlightAware
04:46AM 35.8600 -94.3040 87° East 459 528 33,100 60 Climbing FlightAware
04:46AM 35.8650 -94.1960 87° East 458 527 33,100  Level FlightAware
04:47AM 35.8700 -94.0890 87° East 458 527 33,100 -120 Level FlightAware
04:48AM 35.8750 -93.9800 87° East 457 526 33,000 -120 Descending FlightAware
04:48AM 35.8800 -93.8700 87° East 456 525 33,000  Level FlightAware
04:49AM 35.8840 -93.7620 87° East 456 525 33,000  Level FlightAware
04:50AM 35.8890 -93.6470 87° East 458 527 33,000  Level FlightAware
04:51AM 35.8930 -93.5490 87° East 460 529 33,000  Level FlightAware
04:51AM 35.8980 -93.4300 87° East 461 531 33,000 60 Level FlightAware
04:52AM 35.9020 -93.3250 87° East 463 533 33,100  Climbing FlightAware
04:53AM 35.9060 -93.2220 87° East 463 533 33,000 -120 Descending FlightAware
04:53AM 35.9110 -93.0960 87° East 463 533 33,000  Level FlightAware
04:54AM 35.9150 -92.9900 87° East 464 534 33,000  Level FlightAware
04:55AM 35.9190 -92.8790 87° East 465 535 33,000  Level FlightAware
04:55AM 35.9230 -92.7670 87° East 465 535 33,000  Level FlightAware
04:56AM 35.9270 -92.6560 87° East 464 534 33,000  Level FlightAware
04:57AM 35.9300 -92.5460 88° East 463 533 33,000  Level FlightAware
04:58AM 35.9340 -92.4330 87° East 463 533 33,000  Level FlightAware
04:58AM 35.9380 -92.3230 87° East 463 533 33,000  Level FlightAware
04:59AM 35.9410 -92.2100 88° East 462 532 33,000  Level FlightAware
05:00AM 35.9450 -92.0720 88° East 457 526 33,000  Level FlightAware
05:01AM 35.9480 -91.9550 88° East 460 529 33,000  Level FlightAware
05:01AM 35.9510 -91.8450 88° East 462 532 33,000  Level FlightAware
05:02AM 35.9540 -91.7320 88° East 462 532 33,000  Level FlightAware
05:03AM 35.9570 -91.6250 88° East 462 532 33,000  Level FlightAware
05:03AM 35.9600 -91.5100 88° East 461 531 33,000  Level FlightAware
05:04AM 35.9620 -91.4100 89° East 461 531 33,000  Level FlightAware
05:05AM 35.9650 -91.2900 88° East 460 529 33,000  Level FlightAware
05:06AM 35.9680 -91.1920 88° East 460 529 33,000  Level FlightAware
05:06AM 35.9700 -91.1120 88° East 460 529 33,000  Level FlightAware
05:07AM 35.9730 -91.0020 88° East 460 529 33,000  Level FlightAware
05:08AM 35.9740 -90.8780 89° East 458 527 33,000  Level FlightAware
05:08AM 35.9770 -90.7980 87° East 458 527 33,000  Level FlightAware
05:09AM 35.9800 -90.6910 88° East 458 527 33,000  Level FlightAware
05:10AM 35.9820 -90.6090 88° East 458 527 33,000  Level FlightAware
05:11AM 35.9820 -90.3840 90° East 467 537 33,000  Level FlightAware
05:11AM 35.9840 -90.2910 88° East 467 537 33,000  Level FlightAware
05:12AM 35.9850 -90.2090 89° East 467 537 33,000  Level FlightAware
05:13AM 35.9870 -90.0380 89° East 467 537 33,000  Level FlightAware
05:13AM 35.9880 -89.9540 89° East 467 537 33,000  Level FlightAware
05:14AM 35.9900 -89.8450 89° East 467 537 33,000  Level FlightAware
05:15AM 35.9910 -89.7290 89° East 467 537 33,000  Level FlightAware
05:16AM 35.9930 -89.6470 88° East 467 537 33,000  Level FlightAware
05:16AM 35.9940 -89.5360 89° East 467 537 33,000  Level FlightAware
05:17AM 35.9950 -89.4550 89° East 467 537 33,000  Level FlightAware
05:18AM 35.9960 -89.3730 89° East 467 537 33,000  Level FlightAware
05:18AM 35.9980 -89.2910 88° East 467 537 33,000  Level FlightAware
05:19AM 35.9990 -89.1820 89° East 467 537 33,000  Level FlightAware
05:20AM 36.0000 -89.1000 89° East 467 537 33,000  Level FlightAware
05:20AM 36.0020 -88.9890 89° East 467 537 33,000  Level FlightAware
05:21AM 36.0030 -88.9080 89° East 467 537 33,000  Level FlightAware
05:22AM 36.0040 -88.7990 89° East 467 537 33,000  Level FlightAware
05:22AM 36.0060 -88.7170 88° East 467 537 33,000  Level FlightAware
05:24AM 35.9960 -88.2860 92° East 460 529 33,000  Level FlightAware
05:24AM 35.9950 -88.2040 91° East 460 529 33,000  Level FlightAware
05:25AM 35.9950 -88.0880 90° East 459 528 33,000  Level FlightAware
05:26AM 35.9940 -87.9730 91° East 459 528 33,000  Level FlightAware
05:26AM 35.9940 -87.8900 90° East 458 527 33,000  Level FlightAware
05:27AM 35.9930 -87.7760 91° East 458 527 33,000  Level FlightAware
05:28AM 35.9930 -87.6690 90° East 458 527 33,000  Level FlightAware
05:28AM 35.9920 -87.5540 91° East 458 527 33,000  Level FlightAware
05:29AM 35.9910 -87.4550 91° East 457 526 33,000 60 Level FlightAware
05:30AM 35.9900 -87.3410 91° East 456 525 33,100 60 Climbing FlightAware
05:30AM 35.9890 -87.2570 91° East 454 522 33,100 -120 Level FlightAware
05:31AM 35.9877 -87.1742 91° East 452 520 33,000 -120 Descending FlightAware ADS-B
05:31AM 35.9867 -87.0897 91° East 452 520 33,000  Level FlightAware ADS-B
05:32AM 35.9857 -87.0094 91° East 452 520 33,000  Level FlightAware ADS-B
05:33AM 35.9846 -86.9302 91° East 454 522 33,000  Level FlightAware ADS-B
05:33AM 35.9835 -86.8522 91° East 456 525 33,000  Level FlightAware ADS-B
05:34AM 35.9824 -86.7729 91° East 458 527 33,000  Level FlightAware ADS-B
05:34AM 35.9810 -86.6857 91° East 462 532 33,000  Level FlightAware ADS-B
05:35AM 35.9797 -86.6050 91° East 464 534 33,000 60 Level FlightAware ADS-B
05:35AM 35.9785 -86.5244 91° East 465 535 33,100 60 Climbing FlightAware ADS-B
05:36AM 35.9770 -86.4180 91° East 463 533 33,100  Level FlightAware
05:36AM 35.9747 -86.3186 92° East 462 532 33,100  Level FlightAware ADS-B
05:37AM 35.9732 -86.2372 91° East 459 528 33,100 -120 Level FlightAware ADS-B
05:37AM 35.9716 -86.1539 91° East 456 525 33,000 -120 Descending FlightAware ADS-B
05:38AM 35.9698 -86.0719 92° East 454 522 33,000  Level FlightAware ADS-B
05:38AM 35.9682 -85.9911 91° East 454 522 33,000  Level FlightAware ADS-B
05:39AM 35.9665 -85.9128 92° East 455 524 33,000  Level FlightAware ADS-B
05:40AM 35.9627 -85.7507 92° East 457 526 33,000  Level FlightAware ADS-B
05:41AM 35.9609 -85.6718 92° East 462 532 33,000  Level FlightAware ADS-B
05:41AM 35.9588 -85.5854 92° East 464 534 33,000  Level FlightAware ADS-B
05:42AM 35.9568 -85.5057 92° East 465 535 33,000 60 Level FlightAware ADS-B
05:42AM 35.9547 -85.4239 92° East 466 536 33,100  Climbing FlightAware ADS-B
05:43AM 35.9525 -85.3424 92° East 467 537 33,000 -120 Descending FlightAware ADS-B
05:43AM 35.9503 -85.2619 92° East 468 539 33,000  Level FlightAware ADS-B
05:44AM 35.9481 -85.1811 92° East 468 539 33,000  Level FlightAware ADS-B
05:44AM 35.9450 -85.0746 92° East 468 539 33,000  Level FlightAware ADS-B
05:45AM 35.9427 -84.9921 92° East 468 539 33,000  Level FlightAware ADS-B
05:45AM 35.9402 -84.9116 92° East 468 539 33,000  Level FlightAware ADS-B
05:46AM 35.9377 -84.8287 92° East 467 537 33,000  Level FlightAware ADS-B
05:46AM 35.9352 -84.7476 92° East 466 536 33,000 60 Level FlightAware ADS-B
05:47AM 35.9327 -84.6674 92° East 463 533 33,100 60 Climbing FlightAware ADS-B
05:47AM 35.9301 -84.5859 92° East 460 529 33,100 -120 Level FlightAware ADS-B
05:48AM 35.9274 -84.5065 92° East 458 527 33,000 -120 Descending FlightAware ADS-B
05:48AM 35.9246 -84.4248 92° East 456 525 33,000  Level FlightAware ADS-B
05:49AM 35.9218 -84.3467 93° East 454 522 33,000  Level FlightAware ADS-B
05:49AM 35.9190 -84.2675 92° East 453 521 33,000  Level FlightAware ADS-B
05:50AM 35.9160 -84.1842 93° East 452 520 33,000  Level FlightAware ADS-B
05:50AM 35.9130 -84.1029 93° East 452 520 33,000  Level FlightAware ADS-B
05:51AM 35.9100 -84.0238 93° East 453 521 33,000  Level FlightAware ADS-B
05:51AM 35.9071 -83.9459 93° East 454 522 33,000 -240 Level FlightAware ADS-B
05:52AM 35.9043 -83.8730 93° East 459 528 32,800 -960 Descending FlightAware ADS-B
05:52AM 35.9030 -83.7920 91° East 461 531 32,100 -1,440 Descending FlightAware ADS-B
05:53AM 35.9039 -83.7584 88° East 465 535 31,800 -1,620 Descending FlightAware ADS-B
05:53AM 35.9074 -83.7297 81° East 463 533 31,500 -1,080 Descending FlightAware ADS-B
05:53AM 35.9296 -83.6412 73° East 446 513 31,000 -1,020 Descending FlightAware ADS-B
05:54AM 35.9496 -83.5663 72° East 434 499 30,400 -1,080 Descending FlightAware ADS-B
05:54AM 35.9693 -83.4926 72° East 423 487 29,900 -1,020 Descending FlightAware ADS-B
05:55AM 35.9878 -83.4237 72° East 416 479 29,400 -1,020 Descending FlightAware ADS-B
05:56AM 36.0065 -83.3537 72° East 417 480 28,900 -1,080 Descending FlightAware ADS-B
05:56AM 36.0203 -83.3084 69° East 420 483 28,500 -1,560 Descending FlightAware ADS-B
05:56AM 36.0481 -83.2425 62° Northeast 417 480 27,600 -1,560 Descending FlightAware ADS-B
05:57AM 36.0760 -83.1790 61° Northeast 405 466 26,900 -1,620 Descending FlightAware ADS-B
05:57AM 36.1054 -83.1116 62° Northeast 403 464 25,900 -1,920 Descending FlightAware ADS-B
05:58AM 36.1321 -83.0494 62° Northeast 400 460 24,900 -1,800 Descending FlightAware ADS-B
05:58AM 36.1582 -82.9880 62° Northeast 395 455 24,100 -900 Descending FlightAware ADS-B
05:59AM 36.1843 -82.9282 62° Northeast 393 452 24,000 -180 Descending FlightAware ADS-B
05:59AM 36.1910 -82.9122 63° Northeast 391 450 24,000  Level FlightAware ADS-B
05:59AM 36.1946 -82.9013 68° East 389 448 24,000  Level FlightAware ADS-B
05:59AM 36.1990 -82.8840 73° East 385 443 24,000  Level FlightAware ADS-B
06:00AM 36.2100 -82.8197 78° East 379 436 24,000 -600 Level FlightAware ADS-B
06:00AM 36.2204 -82.7562 79° East 374 430 23,400 -1,380 Descending FlightAware ADS-B
06:01AM 36.2314 -82.6938 78° East 367 422 22,600 -1,920 Descending FlightAware ADS-B
06:01AM 36.2425 -82.6320 77° East 364 419 21,500 -2,100 Descending FlightAware ADS-B
06:02AM 36.2474 -82.6034 78° East 361 415 21,100 -1,380 Descending FlightAware ADS-B
06:02AM 36.2482 -82.5950 83° East 356 410 21,100 -540 Level FlightAware ADS-B
06:02AM 36.2478 -82.5796 92° East 345 397 21,000 -600 Descending FlightAware ADS-B
06:02AM 36.2469 -82.5733 100° East 341 392 21,000  Level FlightAware ADS-B
06:02AM 36.2338 -82.5160 106° East 339 390 21,000  Level FlightAware ADS-B
06:03AM 36.2202 -82.4594 107° East 340 391 21,000  Level FlightAware ADS-B
06:03AM 36.2065 -82.4024 107° East 341 392 21,000  Level FlightAware ADS-B
06:04AM 36.1979 -82.3674 107° East 340 391 21,000  Level FlightAware ADS-B
06:04AM 36.1908 -82.3476 114° Southeast 331 381 21,000 -360 Level FlightAware ADS-B
06:04AM 36.1858 -82.3383 124° Southeast 326 375 20,900 -900 Descending FlightAware ADS-B
06:04AM 36.1781 -82.3270 130° Southeast 321 369 20,800 -1,320 Descending FlightAware ADS-B
06:05AM 36.1481 -82.2866 133° Southeast 318 366 20,100 -1,500 Descending FlightAware ADS-B
06:05AM 36.1176 -82.2458 133° Southeast 318 366 19,300 -1,500 Descending FlightAware ADS-B
06:06AM 36.0873 -82.2054 133° Southeast 313 360 18,600 -1,620 Descending FlightAware ADS-B
06:06AM 36.0577 -82.1660 133° Southeast 311 358 17,700 -1,800 Descending FlightAware ADS-B
06:07AM 36.0275 -82.1259 133° Southeast 311 358 16,800 -1,620 Descending FlightAware ADS-B
06:07AM 35.9952 -82.0831 133° Southeast 302 348 16,000 -1,320 Descending FlightAware ADS-B
06:08AM 35.9580 -82.0340 133° Southeast 298 343 15,100 -1,320 Descending FlightAware
06:08AM 35.9327 -82.0005 133° Southeast 296 341 14,600 -1,140 Descending FlightAware ADS-B
06:09AM 35.9038 -81.9623 133° Southeast 295 339 14,100 -1,020 Descending FlightAware ADS-B
06:09AM 35.8708 -81.9187 133° Southeast 292 336 13,500 -480 Descending FlightAware ADS-B
06:11AM 35.8040 -81.8300 133° Southeast 291 335 13,200 -720 Descending FlightAware
06:13AM 35.6340 -81.6080 133° Southeast 326 375 10,700 -840 Descending FlightAware
06:14AM 35.5970 -81.5600 133° Southeast 323 372 10,700 -120 Level FlightAware
06:15AM 35.5640 -81.5180 134° Southeast 297 342 10,600 -180 Descending FlightAware
06:16AM 35.5020 -81.3870 120° Southeast 294 338 10,300 -1,140 Descending FlightAware
06:17AM 35.5470 -81.2760 63° Northeast 269 310 7,800 -2,520 Descending FlightAware
06:17AM 35.5470 -81.2390 90° East 256 295 7,500 -360 Descending FlightAware
06:18AM 35.5480 -81.2050 88° East 256 295 7,500 -1,140 Level FlightAware
06:18AM 35.5480 -81.1580 90° East 242 278 6,400 -1,200 Descending FlightAware
06:19AM 35.5480 -81.1280 90° East 242 278 6,400 -480 Level FlightAware
06:21AM 35.5260 -80.9950 101° East 4,700 -480 Descending FlightAware
06:21AM 35.5160 -80.9930 171° South 4,700  Level FlightAware
06:21AM 35.5110 -80.9930 180° South 4,700  Level FlightAware
06:22AM 35.4890 -80.9900 174° South 4,700  Level FlightAware
06:22AM 35.4690 -80.9880 175° South 153 176 4,700 -180 Level FlightAware
06:23AM 35.4360 -80.9860 177° South 153 176 4,500 -600 Descending FlightAware
06:24AM 35.4120 -80.9830 174° South 149 171 4,000 -900 Descending FlightAware
06:24AM 35.3950 -80.9820 177° South 149 171 3,700 -780 Descending FlightAware
06:25AM 35.3750 -80.9800 175° South 150 173 3,300 -840 Descending FlightAware
06:25AM 35.3540 -80.9780 176° South 149 171 2,900 -780 Descending FlightAware
06:25AM 35.3370 -80.9770 177° South 147 169 2,600 -780 Descending FlightAware
06:26AM 35.3170 -80.9750 175° South 144 166 2,200 -780 Descending FlightAware
06:26AM 35.3010 -80.9740 177° South 144 166 1,900 -780 Descending FlightAware
06:27AM 35.2800 -80.9720 176° South 141 162 1,500 -840 Descending FlightAware
06:27AM 35.2700 -80.9710 175° South 141 162 1,300 -420 Descending FlightAware
06:28AM 35.2370 -80.9680 176° South 140 161 1,000 -360 Descending FlightAware